Underhill Flats, Vermont
Current Conditions -  °F | °C
As of 4:33 AM on Thursday 18 Dec 2014 (Local Time) from KBTV Reporting Station
Light Snow Light Snow  
Wind Chill: 34°   Ceiling: 4400
Heat Index: 34°   Visibility: 4mi
Dew Point: 31°   Wind: 0mph
Humidity: 89%   Direction: NA
Pressure: 29.77"   Gusts: NA
Location:  44.5378°N, 72.8938°W
Report Text: KBTV 180933Z AUTO 00000KT 4SM -SN BR SCT004 SCT013 OVC044 01/M01 A2977 RMK AO2 SNB0858 P0000 T00111006
Loading
Personal Weather Stations






























Interactive Weather Map New forecast layout! Learn more

10-Day Weather Forecast

Advertisements
Track Severe Weather on mobile